createdAt,value
2022-08-28T16:37:23.068Z,28.58
2022-08-28T16:47:26.547Z,28.42
2022-08-28T16:57:29.223Z,28.19
2022-08-28T17:07:31.386Z,27.95
2022-08-28T17:17:33.797Z,27.77
2022-08-28T17:27:36.247Z,27.21
2022-08-28T17:37:40.242Z,26.47
2022-08-28T17:47:42.213Z,25.71
2022-08-28T17:57:44.492Z,25.20
2022-08-28T18:07:46.856Z,24.85
2022-08-28T18:17:49.945Z,24.51
2022-08-28T18:27:51.831Z,24.29
2022-08-28T18:37:54.270Z,24.09
2022-08-28T18:47:56.185Z,23.92
2022-08-28T18:58:00.002Z,23.68
2022-08-28T19:08:02.504Z,23.46
2022-08-28T19:18:05.018Z,23.10
2022-08-28T19:28:07.945Z,22.93
2022-08-28T19:38:10.458Z,22.65
2022-08-28T19:48:12.806Z,22.55
2022-08-28T19:58:15.118Z,22.56
2022-08-28T20:08:17.794Z,22.54
2022-08-28T20:18:20.828Z,22.55
2022-08-28T20:28:22.754Z,22.56
2022-08-28T20:38:24.671Z,22.46
2022-08-28T20:48:26.834Z,22.33
2022-08-28T20:58:29.871Z,22.19
2022-08-28T21:08:31.990Z,22.11
2022-08-28T21:18:34.257Z,22.04
2022-08-28T21:28:37.184Z,22.16
2022-08-28T21:38:39.650Z,22.10
2022-08-28T21:48:43.511Z,21.97
2022-08-28T21:59:06.277Z,21.93
2022-08-28T22:09:09.759Z,21.89
2022-08-28T22:19:11.728Z,21.89
2022-08-28T22:29:14.025Z,21.85
2022-08-28T22:39:15.899Z,22.00
2022-08-28T22:49:17.839Z,22.04
2022-08-28T22:59:19.713Z,22.12
2022-08-28T23:09:22.294Z,22.21
2022-08-28T23:19:24.573Z,22.15
2022-08-28T23:29:26.879Z,21.99
2022-08-28T23:39:28.716Z,21.81
2022-08-28T23:49:30.982Z,21.67
2022-08-28T23:59:32.793Z,21.64
